Time;durP1;ratioP1;P1;durP2;ratioP2;P2;SDS_P1;SDS_P2;PMS_P1;PMS_P2;Temp;Humidity;BMP_temperature;BMP_pressure;BME280_temperature;BME280_humidity;BME280_pressure;Samples;Min_cycle;Max_cycle;Signal;HPM_P1;HPM_P2
2021/12/17 00:05:03;;;;;;;2.60;1.00;;;19.90;52.20;;;;;;5056774;28;20458;-91
2021/12/17 00:07:32;;;;;;;2.33;0.90;;;19.90;52.20;;;;;;5055662;28;20540;-92
2021/12/17 00:10:01;;;;;;;1.67;0.98;;;19.90;52.20;;;;;;5055609;28;20025;-92
2021/12/17 00:12:28;;;;;;;2.40;0.70;;;19.90;52.20;;;;;;5056696;28;20024;-92
2021/12/17 00:14:54;;;;;;;3.17;1.00;;;19.90;52.30;;;;;;5055606;28;20032;-92
2021/12/17 00:17:26;;;;;;;1.92;0.85;;;19.80;52.20;;;;;;5055492;28;20025;-92
2021/12/17 00:20:37;;;;;;;1.67;0.60;;;19.80;52.20;;;;;;5055482;28;20025;-91
2021/12/17 00:49:46;;;;;;;0.60;0.52;;;19.60;52.50;;;;;;5055890;28;20022;-92
2021/12/17 00:52:12;;;;;;;1.63;0.73;;;19.60;52.60;;;;;;5054848;28;20025;-92
2021/12/17 00:54:40;;;;;;;1.77;0.70;;;19.50;52.50;;;;;;5054875;28;20047;-92
2021/12/17 00:57:15;;;;;;;1.65;0.80;;;19.50;52.50;;;;;;5054706;28;20363;-92
2021/12/17 00:59:44;;;;;;;1.48;0.80;;;19.50;52.60;;;;;;5054494;28;20025;-93
2021/12/17 01:02:13;;;;;;;1.58;0.70;;;19.50;52.60;;;;;;5054808;28;20379;-92
2021/12/17 01:04:44;;;;;;;0.75;0.60;;;19.50;52.60;;;;;;5054596;28;20033;-92
2021/12/17 01:07:11;;;;;;;0.50;0.50;;;19.50;52.60;;;;;;5054401;28;20031;-92
2021/12/17 01:09:37;;;;;;;0.60;0.60;;;19.50;52.60;;;;;;5054444;28;20474;-92
2021/12/17 01:12:06;;;;;;;1.38;0.47;;;19.40;52.60;;;;;;5055543;28;20032;-92
2021/12/17 01:14:32;;;;;;;0.80;0.50;;;19.50;52.70;;;;;;5054392;28;20032;-92
2021/12/17 01:16:58;;;;;;;1.10;0.57;;;19.40;52.60;;;;;;5054374;28;20029;-92
2021/12/17 01:20:07;;;;;;;0.80;0.63;;;19.40;52.60;;;;;;5055403;28;20385;-92
2021/12/17 01:25:08;;;;;;;0.95;0.50;;;19.30;52.70;;;;;;5055524;28;20087;-92
2021/12/17 01:35:46;;;;;;;0.70;0.50;;;19.30;52.70;;;;;;5055204;28;20059;-91
2021/12/17 01:43:47;;;;;;;0.85;0.60;;;19.20;52.70;;;;;;5054836;28;20421;-91
2021/12/17 01:46:23;;;;;;;0.73;0.40;;;19.20;52.70;;;;;;5053641;28;20040;-92
2021/12/17 02:00:14;;;;;;;0.77;0.50;;;19.10;52.90;;;;;;5054642;28;20394;-92
2021/12/17 02:02:46;;;;;;;1.25;0.30;;;19.10;52.90;;;;;;5053564;28;20063;-92
2021/12/17 02:05:13;;;;;;;0.40;0.40;;;19.10;52.90;;;;;;5053345;28;20025;-92
2021/12/17 02:07:40;;;;;;;0.57;0.40;;;19.10;52.90;;;;;;5053350;28;20032;-92
2021/12/17 02:29:06;;;;;;;1.10;0.43;;;19.00;53.00;;;;;;5054368;28;20028;-92
2021/12/17 02:31:33;;;;;;;1.38;0.50;;;19.00;53.10;;;;;;5054155;28;20051;-91
2021/12/17 02:34:05;;;;;;;1.13;0.32;;;18.90;53.00;;;;;;5052811;28;20025;-93
2021/12/17 02:36:34;;;;;;;0.43;0.30;;;19.00;53.10;;;;;;5052771;28;20034;-92
2021/12/17 02:40:08;;;;;;;0.50;0.30;;;18.90;53.10;;;;;;5052616;28;20397;-92
2021/12/17 02:47:18;;;;;;;0.57;0.30;;;18.90;53.20;;;;;;5053979;28;20112;-92
2021/12/17 02:49:46;;;;;;;0.50;0.38;;;18.80;53.10;;;;;;5053702;28;20028;-92
2021/12/17 02:52:12;;;;;;;0.57;0.40;;;18.80;53.10;;;;;;5052661;28;20420;-92
2021/12/17 02:54:39;;;;;;;0.88;0.30;;;18.80;53.10;;;;;;5053433;28;20392;-92
2021/12/17 02:57:06;;;;;;;0.73;0.40;;;18.80;53.20;;;;;;5053635;28;20394;-92
2021/12/17 02:59:33;;;;;;;0.70;0.40;;;18.80;53.20;;;;;;5052488;28;20035;-92
2021/12/17 03:02:00;;;;;;;0.85;0.40;;;18.80;53.20;;;;;;5052591;28;20166;-92
2021/12/17 03:04:27;;;;;;;0.73;0.40;;;18.70;53.20;;;;;;5052365;28;20078;-92
2021/12/17 03:06:54;;;;;;;0.60;0.40;;;18.70;53.20;;;;;;5052608;28;20103;-92
2021/12/17 03:09:29;;;;;;;0.47;0.38;;;18.70;53.30;;;;;;5052432;28;20488;-92
2021/12/17 03:11:54;;;;;;;1.95;0.55;;;18.70;53.30;;;;;;5052546;28;20029;-92
2021/12/17 03:14:20;;;;;;;0.30;0.30;;;18.70;53.30;;;;;;5053596;28;20100;-92
2021/12/17 03:16:58;;;;;;;1.00;0.40;;;18.70;53.40;;;;;;5052463;28;20053;-92
2021/12/17 03:23:25;;;;;;;0.68;0.40;;;18.70;53.40;;;;;;5052131;28;20021;-92
2021/12/17 03:24:53;;;;;;;0.70;0.30;;;18.60;53.40;;;;;;5054004;28;20060;-92
2021/12/17 03:27:19;;;;;;;0.57;0.30;;;18.60;53.50;;;;;;5052449;28;20021;-92
2021/12/17 03:29:45;;;;;;;0.40;0.20;;;18.60;53.40;;;;;;5052339;28;20017;-93
2021/12/17 03:32:10;;;;;;;0.45;0.40;;;18.60;53.50;;;;;;5053367;28;20021;-92
2021/12/17 03:34:36;;;;;;;0.85;0.25;;;18.60;53.50;;;;;;5053396;28;20116;-92
2021/12/17 03:37:02;;;;;;;1.02;0.40;;;18.60;53.50;;;;;;5052254;28;20017;-92
2021/12/17 03:39:30;;;;;;;0.40;0.30;;;18.60;53.50;;;;;;5053502;28;20421;-91
2021/12/17 03:41:57;;;;;;;0.38;0.30;;;18.60;53.50;;;;;;5052413;28;20386;-92
2021/12/17 03:44:22;;;;;;;0.40;0.40;;;18.60;53.60;;;;;;5052329;28;20025;-92
2021/12/17 03:46:50;;;;;;;0.55;0.30;;;18.60;53.60;;;;;;5052909;28;20139;-93
2021/12/17 03:49:17;;;;;;;0.40;0.30;;;18.60;53.60;;;;;;5053362;28;20029;-91
2021/12/17 03:51:53;;;;;;;0.30;0.20;;;18.50;53.60;;;;;;5052108;28;20103;-91
2021/12/17 03:54:19;;;;;;;0.28;0.28;;;18.50;53.60;;;;;;5052027;28;20498;-92
2021/12/17 03:56:45;;;;;;;0.55;0.30;;;18.50;53.60;;;;;;5052274;28;20029;-92
2021/12/17 03:59:10;;;;;;;0.63;0.30;;;18.50;53.60;;;;;;5052101;28;20029;-92
2021/12/17 04:01:39;;;;;;;0.20;0.20;;;18.50;53.70;;;;;;5051976;28;20033;-92
2021/12/17 04:04:06;;;;;;;0.28;0.28;;;18.50;53.70;;;;;;5052237;28;20036;-92
2021/12/17 04:06:32;;;;;;;0.60;0.30;;;18.40;53.70;;;;;;5053876;28;20035;-92
2021/12/17 04:08:58;;;;;;;0.40;0.40;;;18.40;53.60;;;;;;5055674;28;20025;-92
2021/12/17 04:11:24;;;;;;;0.40;0.30;;;18.40;53.60;;;;;;5056726;28;20031;-92
2021/12/17 04:13:55;;;;;;;0.52;0.20;;;18.40;53.70;;;;;;5055448;28;20025;-92
2021/12/17 04:16:25;;;;;;;0.73;0.20;;;18.40;53.70;;;;;;5055496;28;20108;-92
2021/12/17 04:18:51;;;;;;;0.38;0.20;;;18.40;53.70;;;;;;5055572;28;20036;-92
2021/12/17 04:21:18;;;;;;;0.30;0.28;;;18.40;53.70;;;;;;5055510;28;20037;-92
2021/12/17 04:23:45;;;;;;;0.30;0.30;;;18.40;53.80;;;;;;5055339;28;20029;-92
2021/12/17 04:26:12;;;;;;;0.75;0.30;;;18.40;53.80;;;;;;5055382;28;20032;-92
2021/12/17 04:28:44;;;;;;;0.45;0.20;;;18.40;53.80;;;;;;5055392;28;20028;-92
2021/12/17 04:31:10;;;;;;;0.30;0.30;;;18.40;53.80;;;;;;5055330;28;20036;-92
2021/12/17 04:33:38;;;;;;;0.40;0.40;;;18.40;53.90;;;;;;5055133;28;20410;-92
2021/12/17 04:36:04;;;;;;;0.20;0.20;;;18.30;53.80;;;;;;5055332;28;20052;-93
2021/12/17 04:38:30;;;;;;;0.47;0.38;;;18.30;53.80;;;;;;5054910;28;20070;-93
2021/12/17 04:41:04;;;;;;;0.32;0.32;;;18.30;53.70;;;;;;5055090;28;20025;-92
2021/12/17 04:43:51;;;;;;;0.25;0.20;;;18.30;53.80;;;;;;5055259;28;20025;-93
2021/12/17 04:46:29;;;;;;;0.30;0.20;;;18.30;53.90;;;;;;5055756;28;20041;-92
2021/12/17 04:57:20;;;;;;;0.30;0.20;;;18.20;53.90;;;;;;5056117;28;20075;-92
2021/12/17 04:59:47;;;;;;;0.30;0.22;;;18.20;53.90;;;;;;5054766;28;20033;-92
2021/12/17 05:02:15;;;;;;;1.20;0.30;;;18.20;53.90;;;;;;5054541;28;20078;-92
2021/12/17 05:04:41;;;;;;;0.40;0.28;;;18.20;53.90;;;;;;5054516;28;20429;-92
2021/12/17 05:07:08;;;;;;;0.40;0.35;;;18.20;53.90;;;;;;5055814;28;20162;-92
2021/12/17 05:09:43;;;;;;;0.63;0.47;;;18.20;53.90;;;;;;5054364;28;20021;-92
2021/12/17 05:20:47;;;;;;;0.55;0.40;;;18.20;54.00;;;;;;5055473;28;20048;-93
2021/12/17 05:23:01;;;;;;;1.23;0.40;;;18.10;54.00;;;;;;5055084;28;20082;-92
2021/12/17 05:25:29;;;;;;;0.45;0.38;;;18.10;54.00;;;;;;5054220;28;20490;-93
2021/12/17 05:27:59;;;;;;;0.30;0.20;;;18.10;54.00;;;;;;5054061;28;20504;-92
2021/12/17 05:30:25;;;;;;;0.57;0.40;;;18.10;54.00;;;;;;5054142;28;20032;-92
2021/12/17 05:32:51;;;;;;;0.30;0.30;;;18.10;54.00;;;;;;5054018;28;20024;-92
2021/12/17 05:35:17;;;;;;;0.35;0.30;;;18.10;54.00;;;;;;5054983;28;20029;-92
2021/12/17 05:37:42;;;;;;;0.40;0.30;;;18.10;54.10;;;;;;5054093;28;20031;-92
2021/12/17 05:40:09;;;;;;;0.47;0.30;;;18.10;54.00;;;;;;5053982;28;20033;-92
2021/12/17 05:42:34;;;;;;;1.38;0.50;;;18.10;54.00;;;;;;5054899;28;20021;-92
2021/12/17 05:45:08;;;;;;;0.40;0.40;;;18.00;54.00;;;;;;5053628;28;20146;-92
2021/12/17 05:47:34;;;;;;;0.30;0.30;;;18.00;54.10;;;;;;5053845;28;20477;-92
2021/12/17 05:49:59;;;;;;;1.30;0.47;;;18.00;54.10;;;;;;5053715;28;20056;-92
2021/12/17 05:52:25;;;;;;;0.70;0.40;;;18.00;54.10;;;;;;5054807;28;20029;-92
2021/12/17 05:54:50;;;;;;;0.30;0.30;;;18.00;54.10;;;;;;5054925;28;20063;-93
2021/12/17 05:57:16;;;;;;;0.40;0.40;;;18.00;54.10;;;;;;5053648;28;20440;-91
2021/12/17 05:59:42;;;;;;;0.52;0.50;;;18.00;54.10;;;;;;5053607;28;20029;-92
2021/12/17 06:02:11;;;;;;;0.50;0.50;;;18.00;54.10;;;;;;5054572;28;20025;-92
2021/12/17 06:04:37;;;;;;;0.50;0.40;;;18.00;54.10;;;;;;5053419;28;20025;-92
2021/12/17 06:07:04;;;;;;;0.50;0.50;;;18.00;54.20;;;;;;5054404;28;20485;-92
2021/12/17 06:09:30;;;;;;;1.38;0.55;;;18.00;54.20;;;;;;5054426;28;20060;-92
2021/12/17 06:11:56;;;;;;;0.55;0.55;;;18.00;54.20;;;;;;5053289;28;20067;-92
2021/12/17 06:14:21;;;;;;;0.73;0.60;;;18.00;54.30;;;;;;5054401;28;20033;-92
2021/12/17 06:16:48;;;;;;;0.70;0.52;;;18.00;54.40;;;;;;5053185;28;20029;-91
2021/12/17 06:19:17;;;;;;;1.60;0.50;;;18.00;54.60;;;;;;5054234;28;20075;-92
2021/12/17 06:21:43;;;;;;;0.98;0.63;;;18.00;54.60;;;;;;5053218;28;20513;-91
2021/12/17 06:24:08;;;;;;;1.80;0.80;;;18.00;55.70;;;;;;5052860;28;20024;-91
2021/12/17 06:26:34;;;;;;;0.70;0.60;;;18.10;54.70;;;;;;5053075;28;20036;-92
2021/12/17 06:29:00;;;;;;;0.70;0.63;;;18.20;54.70;;;;;;5052370;28;20083;-92
2021/12/17 06:31:27;;;;;;;0.75;0.45;;;18.30;54.70;;;;;;5052850;28;20021;-92
2021/12/17 06:33:53;;;;;;;0.60;0.60;;;18.30;54.60;;;;;;5052901;28;20136;-92
2021/12/17 06:36:19;;;;;;;0.93;0.65;;;18.50;54.60;;;;;;5054204;28;20494;-92
2021/12/17 06:38:44;;;;;;;0.77;0.60;;;18.60;54.40;;;;;;5052887;28;20111;-92
2021/12/17 06:41:10;;;;;;;0.88;0.52;;;18.70;54.20;;;;;;5052794;28;20021;-92
2021/12/17 06:43:41;;;;;;;1.17;0.70;;;18.90;54.10;;;;;;5053895;28;20485;-91
2021/12/17 06:46:22;;;;;;;1.45;0.70;;;19.00;53.80;;;;;;5052497;28;20052;-91
2021/12/17 06:48:55;;;;;;;0.70;0.70;;;19.20;53.60;;;;;;5052687;28;20098;-92
2021/12/17 06:59:48;;;;;;;0.93;0.60;;;19.70;52.50;;;;;;5054171;28;20036;-92
2021/12/17 07:10:45;;;;;;;3.33;0.98;;;20.00;52.70;;;;;;5053967;28;20075;-93
2021/12/17 07:19:53;;;;;;;5.40;0.90;;;20.10;52.90;;;;;;5053975;28;20036;-93
2021/12/17 07:21:58;;;;;;;;;;;20.20;52.90;;;;;;5053625;28;20107;-93
2021/12/17 07:35:12;;;;;;;2.67;0.90;;;20.30;52.80;;;;;;5053402;28;20029;-92
2021/12/17 07:39:56;;;;;;;4.63;0.88;;;20.30;52.80;;;;;;5054633;28;20037;-92
2021/12/17 07:42:22;;;;;;;3.17;1.23;;;20.30;52.70;;;;;;5056245;28;20167;-91
2021/12/17 07:44:48;;;;;;;1.73;0.80;;;20.30;52.70;;;;;;5056201;28;20029;-92
2021/12/17 07:47:17;;;;;;;3.13;0.95;;;20.30;52.70;;;;;;5057095;28;20043;-92
2021/12/17 07:49:42;;;;;;;4.28;0.98;;;20.30;53.60;;;;;;5057302;28;20029;-92
2021/12/17 07:52:08;;;;;;;5.30;1.77;;;20.30;52.60;;;;;;5055724;28;20017;-91
2021/12/17 07:54:33;;;;;;;4.65;1.00;;;20.30;52.50;;;;;;5056824;28;20459;-90
2021/12/17 07:56:59;;;;;;;1.80;0.93;;;20.30;52.50;;;;;;5056883;28;20025;-90
2021/12/17 07:59:25;;;;;;;4.28;1.15;;;20.40;52.60;;;;;;5055554;28;20053;-90
2021/12/17 08:01:50;;;;;;;1.58;1.00;;;20.30;52.50;;;;;;5056656;28;20580;-91
2021/12/17 08:04:16;;;;;;;3.17;1.13;;;20.30;53.40;;;;;;5055252;28;20029;-91
2021/12/17 08:06:42;;;;;;;6.00;1.05;;;20.30;52.50;;;;;;5055131;28;20029;-90
2021/12/17 08:09:07;;;;;;;4.07;1.17;;;20.30;52.50;;;;;;5056514;28;20037;-90
2021/12/17 08:11:39;;;;;;;4.10;1.25;;;20.30;52.50;;;;;;5056469;28;20032;-88
2021/12/17 08:14:11;;;;;;;8.77;1.40;;;20.30;52.50;;;;;;5055377;28;20131;-89
2021/12/17 08:16:45;;;;;;;5.13;1.27;;;20.30;52.60;;;;;;5054978;28;20021;-89
2021/12/17 08:25:10;;;;;;;3.45;1.33;;;20.30;52.90;;;;;;5054181;28;20035;-89
2021/12/17 08:32:41;;;;;;;2.47;1.05;;;20.30;53.00;;;;;;5056149;28;20035;-87
2021/12/17 08:35:08;;;;;;;3.35;0.93;;;20.20;52.90;;;;;;5054679;28;20060;-88
2021/12/17 08:37:33;;;;;;;3.83;1.02;;;20.30;53.00;;;;;;5054828;28;20072;-89
2021/12/17 08:39:59;;;;;;;4.15;1.17;;;20.30;53.00;;;;;;5055915;28;20557;-87
2021/12/17 08:42:27;;;;;;;2.25;1.10;;;20.20;52.90;;;;;;5041521;28;20026;-88
2021/12/17 08:44:52;;;;;;;2.83;1.20;;;20.30;53.00;;;;;;5040151;28;20103;-88
2021/12/17 08:47:18;;;;;;;4.13;1.02;;;20.30;53.00;;;;;;5052989;28;20485;-88
2021/12/17 08:49:44;;;;;;;6.60;1.27;;;20.20;53.00;;;;;;5053299;28;20048;-85
2021/12/17 08:52:11;;;;;;;5.68;1.15;;;20.20;53.10;;;;;;5049378;28;20066;-88
2021/12/17 08:54:37;;;;;;;4.35;1.05;;;20.20;53.20;;;;;;5055529;28;20478;-88
2021/12/17 08:57:03;;;;;;;6.78;1.05;;;20.20;53.30;;;;;;5054474;28;20154;-86
2021/12/17 08:59:29;;;;;;;5.63;0.95;;;20.20;53.20;;;;;;5055400;28;20031;-88
2021/12/17 09:01:55;;;;;;;5.05;1.05;;;20.20;53.20;;;;;;5054262;28;20108;-89
2021/12/17 09:04:22;;;;;;;6.57;1.17;;;20.20;53.20;;;;;;5055556;28;20382;-91
2021/12/17 09:06:48;;;;;;;5.47;1.17;;;20.20;53.20;;;;;;5055230;28;20025;-87
2021/12/17 09:09:18;;;;;;;3.58;1.20;;;20.20;53.10;;;;;;5055189;28;20370;-91
2021/12/17 09:11:44;;;;;;;3.58;1.30;;;20.20;53.10;;;;;;5071187;28;20484;-89
2021/12/17 09:14:10;;;;;;;6.68;1.10;;;20.20;53.20;;;;;;5054258;28;20032;-91
2021/12/17 09:16:36;;;;;;;9.95;1.42;;;20.20;53.20;;;;;;5055358;28;20036;-90
2021/12/17 09:19:03;;;;;;;6.03;1.02;;;20.20;53.30;;;;;;5070888;28;20028;-88
2021/12/17 09:21:30;;;;;;;7.60;1.25;;;20.20;53.30;;;;;;5055415;28;20032;-88
2021/12/17 09:23:56;;;;;;;5.30;1.30;;;20.20;53.30;;;;;;5053934;28;20021;-91
2021/12/17 09:26:22;;;;;;;6.88;1.30;;;20.20;53.30;;;;;;5055146;28;20083;-90
2021/12/17 09:28:49;;;;;;;6.63;1.10;;;20.20;53.30;;;;;;5054743;28;20092;-89
2021/12/17 09:31:15;;;;;;;9.63;1.15;;;20.20;53.40;;;;;;5053640;28;20029;-87
2021/12/17 09:33:42;;;;;;;4.68;0.80;;;20.20;53.40;;;;;;5053621;28;20074;-89
2021/12/17 09:36:08;;;;;;;9.23;1.00;;;20.20;53.50;;;;;;5054968;28;20055;-87
2021/12/17 09:38:34;;;;;;;6.47;1.10;;;20.20;53.50;;;;;;5054716;28;20112;-89
2021/12/17 09:41:00;;;;;;;6.63;1.30;;;20.20;53.50;;;;;;5054736;28;20100;-86
2021/12/17 09:43:27;;;;;;;7.70;1.05;;;20.20;53.50;;;;;;5054671;28;20155;-88
2021/12/17 09:45:53;;;;;;;6.40;1.30;;;20.20;53.50;;;;;;5054445;28;20580;-88
2021/12/17 09:48:19;;;;;;;5.78;1.30;;;20.10;53.50;;;;;;5054237;28;20033;-88
2021/12/17 09:50:45;;;;;;;7.18;1.20;;;20.10;53.60;;;;;;5036683;28;20021;-89
2021/12/17 09:53:11;;;;;;;7.20;1.00;;;20.20;53.40;;;;;;5053180;28;20032;-90
2021/12/17 09:55:37;;;;;;;8.48;1.08;;;20.20;53.40;;;;;;5054635;28;20032;-87
2021/12/17 09:58:02;;;;;;;8.15;1.33;;;20.20;53.30;;;;;;5054545;28;20040;-87
2021/12/17 10:00:28;;;;;;;12.10;1.17;;;20.10;53.30;;;;;;5054369;28;20544;-88
2021/12/17 10:02:54;;;;;;;5.78;1.05;;;20.10;53.30;;;;;;5053733;28;20033;-89
2021/12/17 10:05:30;;;;;;;13.20;1.63;;;20.10;53.20;;;;;;5053046;28;20033;-87
2021/12/17 10:08:01;;;;;;;8.00;1.13;;;20.20;53.20;;;;;;5053943;28;20470;-90
2021/12/17 10:10:44;;;;;;;6.13;1.33;;;20.10;53.20;;;;;;5054388;28;20035;-87
2021/12/17 10:13:21;;;;;;;7.55;1.17;;;20.10;53.10;;;;;;5054313;28;20021;-88
2021/12/17 10:15:49;;;;;;;7.05;1.20;;;20.10;53.20;;;;;;5053137;28;20021;-89
2021/12/17 10:18:16;;;;;;;6.50;1.20;;;20.10;53.10;;;;;;5054118;28;20467;-91
2021/12/17 10:20:56;;;;;;;6.65;1.10;;;20.10;53.20;;;;;;5054168;28;20025;-87
2021/12/17 10:23:24;;;;;;;5.50;1.10;;;20.20;53.10;;;;;;5054156;28;20017;-88
2021/12/17 10:25:50;;;;;;;4.50;1.00;;;20.10;53.10;;;;;;5054112;28;20469;-89
2021/12/17 10:28:16;;;;;;;6.85;1.05;;;20.10;53.10;;;;;;5054208;28;20108;-91
2021/12/17 10:30:45;;;;;;;4.78;0.90;;;20.10;53.10;;;;;;5052827;28;20387;-88
2021/12/17 10:33:20;;;;;;;2.55;0.85;;;20.10;54.10;;;;;;5054067;28;20040;-90
2021/12/17 10:35:49;;;;;;;6.78;1.23;;;20.10;53.10;;;;;;5052674;28;20493;-90
2021/12/17 10:38:19;;;;;;;5.85;1.13;;;20.10;53.10;;;;;;5053905;28;20409;-88
2021/12/17 10:40:50;;;;;;;5.40;0.85;;;20.10;53.10;;;;;;5052916;28;20083;-88
2021/12/17 10:46:05;;;;;;;5.55;0.82;;;20.10;53.10;;;;;;5053711;28;20529;-90
2021/12/17 10:48:50;;;;;;;3.80;0.90;;;20.10;53.10;;;;;;5052843;28;20162;-89
2021/12/17 10:51:29;;;;;;;3.20;0.55;;;20.10;53.10;;;;;;5053759;28;20017;-90
2021/12/17 10:53:58;;;;;;;6.63;0.90;;;20.10;53.10;;;;;;5052407;28;20017;-90
2021/12/17 10:56:32;;;;;;;5.57;1.10;;;20.10;53.10;;;;;;5053597;28;20100;-87
2021/12/17 10:59:10;;;;;;;6.68;0.80;;;20.10;53.10;;;;;;5053640;28;20029;-91
2021/12/17 11:01:42;;;;;;;4.40;0.70;;;20.10;53.00;;;;;;5052408;28;20374;-89
2021/12/17 11:04:19;;;;;;;3.28;0.60;;;20.20;53.10;;;;;;5053618;28;20095;-91
2021/12/17 11:06:59;;;;;;;4.35;0.82;;;20.10;53.00;;;;;;5052272;28;20068;-89
2021/12/17 11:09:32;;;;;;;4.85;0.80;;;20.20;53.00;;;;;;5052385;28;20017;-90
2021/12/17 11:12:01;;;;;;;3.28;0.80;;;20.20;53.00;;;;;;5052375;28;20025;-87
2021/12/17 11:14:27;;;;;;;2.60;0.70;;;20.10;53.00;;;;;;5053884;28;20032;-87
2021/12/17 11:16:54;;;;;;;3.83;0.63;;;20.10;53.00;;;;;;5057611;28;20040;-90
2021/12/17 11:19:20;;;;;;;2.33;0.77;;;20.10;53.00;;;;;;5057519;28;20060;-87
2021/12/17 11:21:46;;;;;;;6.00;0.75;;;20.10;52.90;;;;;;5057559;28;20025;-88
2021/12/17 11:24:12;;;;;;;4.80;0.68;;;20.10;52.90;;;;;;5056464;28;20048;-87
2021/12/17 11:26:40;;;;;;;3.78;0.90;;;20.10;52.90;;;;;;5057479;28;20402;-90
2021/12/17 11:29:05;;;;;;;3.97;0.80;;;20.10;52.90;;;;;;5056446;28;20028;-88
2021/12/17 11:31:32;;;;;;;2.15;0.80;;;20.20;52.90;;;;;;5057380;28;20021;-88
2021/12/17 11:34:02;;;;;;;5.38;0.90;;;20.20;52.90;;;;;;5056071;28;20236;-88
2021/12/17 11:36:28;;;;;;;3.88;0.70;;;20.20;52.90;;;;;;5056056;28;20025;-91
2021/12/17 11:39:05;;;;;;;3.95;0.70;;;20.20;52.90;;;;;;5057658;28;20021;-88
2021/12/17 11:41:59;;;;;;;4.80;0.82;;;20.20;52.90;;;;;;5057195;28;20029;-89
2021/12/17 11:44:38;;;;;;;2.17;0.50;;;20.20;52.80;;;;;;5057553;28;20185;-87
2021/12/17 11:47:06;;;;;;;4.50;0.60;;;20.20;52.90;;;;;;5057349;28;20044;-88
2021/12/17 11:49:38;;;;;;;3.20;0.57;;;20.20;52.90;;;;;;5057175;28;20021;-88
2021/12/17 11:52:04;;;;;;;1.35;0.52;;;20.20;52.90;;;;;;5056674;28;20021;-88
2021/12/17 11:54:32;;;;;;;5.22;0.82;;;20.20;52.90;;;;;;5057105;28;20096;-90
2021/12/17 11:57:12;;;;;;;4.15;0.80;;;20.20;52.80;;;;;;5057155;28;20021;-90
2021/12/17 11:59:41;;;;;;;4.60;0.68;;;20.20;52.80;;;;;;5057026;28;20032;-89
2021/12/17 12:02:17;;;;;;;1.73;0.47;;;20.20;52.80;;;;;;5055751;28;20078;-90
2021/12/17 12:04:59;;;;;;;2.45;0.50;;;20.20;52.80;;;;;;5056787;28;20386;-91
2021/12/17 12:07:24;;;;;;;1.95;0.50;;;20.20;52.80;;;;;;5056741;28;20500;-90
2021/12/17 12:10:08;;;;;;;2.33;0.50;;;20.20;52.80;;;;;;5055477;28;20028;-88
2021/12/17 12:12:36;;;;;;;3.25;1.00;;;20.20;52.80;;;;;;5055253;28;20431;-92
2021/12/17 12:15:17;;;;;;;1.92;0.60;;;20.20;52.80;;;;;;5056674;28;20048;-89
2021/12/17 12:17:58;;;;;;;2.28;0.82;;;20.20;52.80;;;;;;5055381;28;20032;-92
2021/12/17 12:20:48;;;;;;;1.58;0.70;;;20.20;52.80;;;;;;5056442;28;20470;-92
2021/12/17 12:23:28;;;;;;;2.00;0.50;;;20.20;52.70;;;;;;5055338;28;20115;-89
2021/12/17 12:26:07;;;;;;;1.70;0.60;;;20.20;52.80;;;;;;5054589;28;20025;-88
2021/12/17 12:28:45;;;;;;;1.80;0.55;;;20.20;52.80;;;;;;5055358;28;20402;-89
2021/12/17 12:31:20;;;;;;;3.85;0.70;;;20.20;52.80;;;;;;5056254;28;20025;-90
2021/12/17 12:34:04;;;;;;;2.25;0.63;;;20.20;52.80;;;;;;5056459;28;20066;-90
2021/12/17 12:36:50;;;;;;;3.22;0.70;;;20.20;52.70;;;;;;5056295;28;20017;-89
2021/12/17 12:39:23;;;;;;;2.55;0.63;;;20.20;52.70;;;;;;5054964;28;20017;-89
2021/12/17 12:42:11;;;;;;;1.25;0.60;;;20.20;52.70;;;;;;5056017;28;20045;-91
2021/12/17 12:44:42;;;;;;;1.95;0.50;;;20.20;52.70;;;;;;5055782;28;20056;-91
2021/12/17 12:47:09;;;;;;;2.15;0.55;;;20.20;52.70;;;;;;5055868;28;20152;-91
2021/12/17 12:49:48;;;;;;;1.67;0.68;;;20.20;52.70;;;;;;5054496;28;20355;-88
2021/12/17 12:52:20;;;;;;;1.67;0.50;;;20.20;52.60;;;;;;5055548;28;20017;-90
2021/12/17 12:54:54;;;;;;;1.23;0.60;;;20.20;52.60;;;;;;5055993;28;20398;-89
2021/12/17 12:57:39;;;;;;;2.35;0.57;;;20.20;52.60;;;;;;5055781;28;20024;-91
2021/12/17 13:00:21;;;;;;;1.23;0.40;;;20.20;52.60;;;;;;5054327;28;20048;-89
2021/12/17 13:02:52;;;;;;;1.85;0.50;;;20.20;52.60;;;;;;5055322;28;20060;-91
2021/12/17 13:05:18;;;;;;;2.15;0.68;;;20.20;52.60;;;;;;5055767;28;20025;-91
2021/12/17 13:07:48;;;;;;;3.40;0.55;;;20.20;52.60;;;;;;5055435;28;20071;-92
2021/12/17 13:10:14;;;;;;;1.42;0.55;;;20.20;52.60;;;;;;5055641;28;20064;-90
2021/12/17 13:12:41;;;;;;;1.88;0.40;;;20.20;52.60;;;;;;5054053;28;20497;-89
2021/12/17 13:15:19;;;;;;;4.90;0.80;;;20.20;52.50;;;;;;5054114;28;20450;-88
2021/12/17 13:21:05;;;;;;;1.23;0.50;;;20.30;52.60;;;;;;5055151;28;20086;-90
2021/12/17 13:23:38;;;;;;;2.38;0.50;;;20.20;52.60;;;;;;5055149;28;20059;-89
2021/12/17 13:26:10;;;;;;;2.50;0.70;;;20.20;52.60;;;;;;5054038;28;20025;-90
2021/12/17 13:28:55;;;;;;;2.50;0.57;;;20.20;52.60;;;;;;5055110;28;20029;-88
2021/12/17 13:31:46;;;;;;;1.52;0.60;;;20.30;52.70;;;;;;5055226;28;20051;-88
2021/12/17 13:34:49;;;;;;;3.83;0.60;;;20.30;52.70;;;;;;5055138;28;20031;-90
2021/12/17 13:37:20;;;;;;;2.88;0.73;;;20.20;52.60;;;;;;5053425;28;20068;-92
2021/12/17 13:39:49;;;;;;;6.90;0.80;;;20.30;52.70;;;;;;5054933;28;20021;-88
2021/12/17 13:42:21;;;;;;;2.92;0.75;;;20.20;52.60;;;;;;5054661;28;20082;-92
2021/12/17 13:44:50;;;;;;;3.88;0.60;;;20.30;52.70;;;;;;5054981;28;20025;-92
2021/12/17 13:47:19;;;;;;;4.45;0.90;;;20.20;52.60;;;;;;5053556;28;20049;-90
2021/12/17 13:50:08;;;;;;;2.38;0.68;;;20.20;52.60;;;;;;5053821;28;20467;-92
2021/12/17 13:52:38;;;;;;;3.58;0.82;;;20.30;52.60;;;;;;5054026;28;20029;-91
2021/12/17 13:55:09;;;;;;;2.05;0.90;;;20.20;52.60;;;;;;5054937;28;20466;-87
2021/12/17 13:57:35;;;;;;;2.72;0.80;;;20.20;52.60;;;;;;5054740;28;20036;-90
2021/12/17 14:00:21;;;;;;;4.38;0.98;;;20.20;52.60;;;;;;5054729;28;20025;-89
2021/12/17 14:02:49;;;;;;;4.93;1.02;;;20.20;52.60;;;;;;5054568;28;20032;-89
2021/12/17 14:05:28;;;;;;;5.35;1.10;;;20.20;52.60;;;;;;5054290;28;20116;-88
2021/12/17 14:07:57;;;;;;;2.13;0.80;;;20.20;52.70;;;;;;5054088;28;20493;-87
2021/12/17 14:10:32;;;;;;;4.97;0.73;;;20.20;52.90;;;;;;5054228;28;20020;-88
2021/12/17 14:12:59;;;;;;;4.32;0.70;;;20.20;53.10;;;;;;5054069;28;20029;-89
2021/12/17 14:15:29;;;;;;;3.45;0.93;;;20.20;53.30;;;;;;5053941;28;20013;-89
2021/12/17 14:18:00;;;;;;;3.90;0.80;;;20.20;53.40;;;;;;5054015;28;20028;-87
2021/12/17 14:20:28;;;;;;;3.03;0.93;;;20.30;53.70;;;;;;5054049;28;20032;-86
2021/12/17 14:22:56;;;;;;;6.82;1.00;;;20.30;53.80;;;;;;5053929;28;20052;-88
2021/12/17 14:25:34;;;;;;;5.05;0.80;;;20.40;53.80;;;;;;5053761;28;20013;-87
2021/12/17 14:28:11;;;;;;;3.50;0.70;;;20.40;53.90;;;;;;5053838;28;20028;-86
2021/12/17 14:30:39;;;;;;;3.92;0.80;;;20.50;53.80;;;;;;5053792;28;20021;-87
2021/12/17 14:33:09;;;;;;;1.95;0.75;;;20.50;53.80;;;;;;5053731;28;20055;-86
2021/12/17 14:35:42;;;;;;;3.58;0.80;;;20.60;53.80;;;;;;5053945;28;20104;-87
2021/12/17 14:38:08;;;;;;;6.15;1.00;;;20.70;53.90;;;;;;5053810;28;20079;-88
2021/12/17 14:40:42;;;;;;;3.15;0.75;;;20.80;53.80;;;;;;5052689;28;20025;-91
2021/12/17 14:43:21;;;;;;;4.50;0.80;;;20.80;53.60;;;;;;5053961;28;20035;-91
2021/12/17 14:46:13;;;;;;;3.50;0.70;;;20.90;53.60;;;;;;5052875;28;20044;-85
2021/12/17 14:48:51;;;;;;;8.13;1.30;;;21.00;53.60;;;;;;5053969;28;20074;-87
2021/12/17 15:04:45;;;;;;;4.47;1.13;;;21.20;54.10;;;;;;5053393;28;20028;-88
2021/12/17 15:07:10;;;;;;;8.40;1.35;;;21.30;54.00;;;;;;5053227;28;20025;-90
2021/12/17 15:09:40;;;;;;;13.05;1.63;;;21.30;54.00;;;;;;5053837;28;20025;-88
2021/12/17 15:12:37;;;;;;;6.18;1.20;;;21.30;53.90;;;;;;5053506;28;20471;-92
2021/12/17 15:15:23;;;;;;;7.57;1.40;;;21.30;53.80;;;;;;5052109;28;20087;-88
2021/12/17 15:17:51;;;;;;;3.58;1.13;;;21.40;53.50;;;;;;5048241;28;20025;-88
2021/12/17 15:20:28;;;;;;;8.10;1.20;;;21.40;53.40;;;;;;5065154;28;20033;-93
2021/12/17 15:22:56;;;;;;;6.25;1.05;;;21.40;53.30;;;;;;5040173;28;20075;-92
2021/12/17 15:25:22;;;;;;;6.90;1.23;;;21.40;53.20;;;;;;5032678;28;20479;-87
2021/12/17 15:27:49;;;;;;;15.05;1.63;;;21.40;53.10;;;;;;5033350;28;20120;-88
2021/12/17 15:30:27;;;;;;;15.10;3.88;;;21.40;53.20;;;;;;5043785;28;20025;-88
2021/12/17 15:32:53;;;;;;;16.55;4.60;;;21.40;53.10;;;;;;5053092;28;20032;-89
2021/12/17 15:35:22;;;;;;;22.42;7.57;;;21.40;53.10;;;;;;5053614;28;20075;-90
2021/12/17 15:37:49;;;;;;;30.70;9.73;;;21.40;53.20;;;;;;5053655;28;20025;-89
2021/12/17 15:40:15;;;;;;;35.05;10.82;;;21.40;53.10;;;;;;5052847;28;20425;-88
2021/12/17 15:42:41;;;;;;;34.10;11.13;;;21.40;53.10;;;;;;5053093;28;20413;-96
2021/12/17 15:45:08;;;;;;;33.55;11.05;;;21.40;53.10;;;;;;5052854;28;20033;-92
2021/12/17 15:47:35;;;;;;;37.50;10.40;;;21.40;53.10;;;;;;5052585;28;20032;-90
2021/12/17 15:50:01;;;;;;;37.95;12.15;;;21.40;53.10;;;;;;5052336;28;20028;-94